sensor_id;sensor_type;location;lat;lon;timestamp;temperature;humidity
20041;DHT22;10181;48.072;9.884;2023-10-19T00:01:56;7.30;99.90
20041;DHT22;10181;48.072;9.884;2023-10-19T00:04:24;7.40;99.90
20041;DHT22;10181;48.072;9.884;2023-10-19T00:06:50;7.40;99.90
20041;DHT22;10181;48.072;9.884;2023-10-19T00:09:16;7.50;99.90
20041;DHT22;10181;48.072;9.884;2023-10-19T00:11:41;7.40;99.90
20041;DHT22;10181;48.072;9.884;2023-10-19T00:14:07;7.50;99.90
20041;DHT22;10181;48.072;9.884;2023-10-19T00:16:46;7.50;99.90
20041;DHT22;10181;48.072;9.884;2023-10-19T00:19:18;7.50;99.90
20041;DHT22;10181;48.072;9.884;2023-10-19T00:21:47;7.50;99.90
20041;DHT22;10181;48.072;9.884;2023-10-19T00:24:17;7.60;99.90
20041;DHT22;10181;48.072;9.884;2023-10-19T00:26:44;7.60;99.90
20041;DHT22;10181;48.072;9.884;2023-10-19T00:29:10;7.60;99.90
20041;DHT22;10181;48.072;9.884;2023-10-19T00:31:59;7.60;99.90
20041;DHT22;10181;48.072;9.884;2023-10-19T00:34:28;7.70;99.90
20041;DHT22;10181;48.072;9.884;2023-10-19T00:36:55;7.70;99.90
20041;DHT22;10181;48.072;9.884;2023-10-19T00:39:27;7.70;99.90
20041;DHT22;10181;48.072;9.884;2023-10-19T00:41:53;7.80;99.90
20041;DHT22;10181;48.072;9.884;2023-10-19T00:44:23;7.80;99.90
20041;DHT22;10181;48.072;9.884;2023-10-19T00:46:56;7.80;99.90
20041;DHT22;10181;48.072;9.884;2023-10-19T00:49:37;7.80;99.90
20041;DHT22;10181;48.072;9.884;2023-10-19T00:52:03;7.80;99.90
20041;DHT22;10181;48.072;9.884;2023-10-19T00:54:39;7.80;99.90
20041;DHT22;10181;48.072;9.884;2023-10-19T00:57:20;7.80;99.90
20041;DHT22;10181;48.072;9.884;2023-10-19T00:59:48;7.80;99.90
20041;DHT22;10181;48.072;9.884;2023-10-19T01:02:16;7.80;99.90
20041;DHT22;10181;48.072;9.884;2023-10-19T01:04:52;7.80;99.90
20041;DHT22;10181;48.072;9.884;2023-10-19T01:07:25;7.70;99.90
20041;DHT22;10181;48.072;9.884;2023-10-19T01:09:53;7.70;99.90
20041;DHT22;10181;48.072;9.884;2023-10-19T01:12:26;7.70;99.90
20041;DHT22;10181;48.072;9.884;2023-10-19T01:15:13;7.70;99.90
20041;DHT22;10181;48.072;9.884;2023-10-19T01:17:44;7.70;99.90
20041;DHT22;10181;48.072;9.884;2023-10-19T01:20:17;7.70;99.90
20041;DHT22;10181;48.072;9.884;2023-10-19T01:22:50;7.80;99.90
20041;DHT22;10181;48.072;9.884;2023-10-19T01:25:19;7.80;99.90
20041;DHT22;10181;48.072;9.884;2023-10-19T01:27:50;7.80;99.90
20041;DHT22;10181;48.072;9.884;2023-10-19T01:30:20;7.90;99.90
20041;DHT22;10181;48.072;9.884;2023-10-19T01:32:45;8.00;99.90
20041;DHT22;10181;48.072;9.884;2023-10-19T01:35:11;8.10;99.90
20041;DHT22;10181;48.072;9.884;2023-10-19T01:37:43;8.10;99.90
20041;DHT22;10181;48.072;9.884;2023-10-19T01:40:09;8.10;99.90
20041;DHT22;10181;48.072;9.884;2023-10-19T01:42:40;8.10;99.90
20041;DHT22;10181;48.072;9.884;2023-10-19T01:45:07;8.10;99.90
20041;DHT22;10181;48.072;9.884;2023-10-19T01:47:37;8.10;99.90
20041;DHT22;10181;48.072;9.884;2023-10-19T01:50:02;8.10;99.90
20041;DHT22;10181;48.072;9.884;2023-10-19T01:52:31;8.20;99.90
20041;DHT22;10181;48.072;9.884;2023-10-19T01:54:57;8.30;99.90
20041;DHT22;10181;48.072;9.884;2023-10-19T01:57:32;8.30;99.90
20041;DHT22;10181;48.072;9.884;2023-10-19T02:00:00;8.40;99.90
20041;DHT22;10181;48.072;9.884;2023-10-19T02:02:33;8.40;99.90
20041;DHT22;10181;48.072;9.884;2023-10-19T02:05:00;8.40;99.90
20041;DHT22;10181;48.072;9.884;2023-10-19T02:07:29;8.50;99.90
20041;DHT22;10181;48.072;9.884;2023-10-19T02:09:55;8.60;99.90
20041;DHT22;10181;48.072;9.884;2023-10-19T02:12:21;8.60;99.90
20041;DHT22;10181;48.072;9.884;2023-10-19T02:14:47;8.70;99.90
20041;DHT22;10181;48.072;9.884;2023-10-19T02:17:12;8.60;99.90
20041;DHT22;10181;48.072;9.884;2023-10-19T02:19:40;8.60;99.90
20041;DHT22;10181;48.072;9.884;2023-10-19T02:22:06;8.60;99.90
20041;DHT22;10181;48.072;9.884;2023-10-19T02:24:37;8.70;99.90
20041;DHT22;10181;48.072;9.884;2023-10-19T02:27:02;8.60;99.90
20041;DHT22;10181;48.072;9.884;2023-10-19T02:29:28;8.70;99.90
20041;DHT22;10181;48.072;9.884;2023-10-19T02:31:54;8.70;99.90
20041;DHT22;10181;48.072;9.884;2023-10-19T02:34:21;8.70;99.90
20041;DHT22;10181;48.072;9.884;2023-10-19T02:36:48;8.80;99.90
20041;DHT22;10181;48.072;9.884;2023-10-19T02:39:14;8.80;99.90
20041;DHT22;10181;48.072;9.884;2023-10-19T02:41:42;8.80;99.90
20041;DHT22;10181;48.072;9.884;2023-10-19T02:44:17;8.80;99.90
20041;DHT22;10181;48.072;9.884;2023-10-19T02:46:43;8.80;99.90
20041;DHT22;10181;48.072;9.884;2023-10-19T02:49:12;8.80;99.90
20041;DHT22;10181;48.072;9.884;2023-10-19T02:51:40;8.90;99.90
20041;DHT22;10181;48.072;9.884;2023-10-19T02:54:07;8.90;99.90
20041;DHT22;10181;48.072;9.884;2023-10-19T02:56:34;8.90;99.90
20041;DHT22;10181;48.072;9.884;2023-10-19T02:59:05;8.90;99.90
20041;DHT22;10181;48.072;9.884;2023-10-19T03:01:32;8.90;99.90
20041;DHT22;10181;48.072;9.884;2023-10-19T03:04:00;8.90;99.90
20041;DHT22;10181;48.072;9.884;2023-10-19T03:06:30;8.90;99.90
20041;DHT22;10181;48.072;9.884;2023-10-19T03:09:00;9.00;99.90
20041;DHT22;10181;48.072;9.884;2023-10-19T03:11:47;9.00;99.90
20041;DHT22;10181;48.072;9.884;2023-10-19T03:14:18;9.00;99.90
20041;DHT22;10181;48.072;9.884;2023-10-19T03:16:43;8.90;99.90
20041;DHT22;10181;48.072;9.884;2023-10-19T03:19:09;8.90;99.90
20041;DHT22;10181;48.072;9.884;2023-10-19T03:21:35;8.90;99.90
20041;DHT22;10181;48.072;9.884;2023-10-19T03:24:08;8.90;99.90
20041;DHT22;10181;48.072;9.884;2023-10-19T03:26:53;8.90;99.90
20041;DHT22;10181;48.072;9.884;2023-10-19T03:29:20;8.90;99.90
20041;DHT22;10181;48.072;9.884;2023-10-19T03:31:56;9.00;99.90
20041;DHT22;10181;48.072;9.884;2023-10-19T03:34:21;9.10;99.90
20041;DHT22;10181;48.072;9.884;2023-10-19T03:36:49;9.10;99.90
20041;DHT22;10181;48.072;9.884;2023-10-19T03:39:16;9.00;99.90
20041;DHT22;10181;48.072;9.884;2023-10-19T03:41:44;9.00;99.90
20041;DHT22;10181;48.072;9.884;2023-10-19T03:44:13;9.00;99.90
20041;DHT22;10181;48.072;9.884;2023-10-19T03:46:59;9.00;99.90
20041;DHT22;10181;48.072;9.884;2023-10-19T03:49:29;9.00;99.90
20041;DHT22;10181;48.072;9.884;2023-10-19T03:52:03;9.00;99.90
20041;DHT22;10181;48.072;9.884;2023-10-19T03:54:35;9.00;99.90
20041;DHT22;10181;48.072;9.884;2023-10-19T03:57:11;9.00;99.90
20041;DHT22;10181;48.072;9.884;2023-10-19T03:59:41;9.00;99.90
20041;DHT22;10181;48.072;9.884;2023-10-19T04:02:10;9.00;99.90
20041;DHT22;10181;48.072;9.884;2023-10-19T04:04:43;9.00;99.90
20041;DHT22;10181;48.072;9.884;2023-10-19T04:07:12;9.00;99.90
20041;DHT22;10181;48.072;9.884;2023-10-19T04:09:51;9.10;99.90
20041;DHT22;10181;48.072;9.884;2023-10-19T04:12:24;9.10;99.90
20041;DHT22;10181;48.072;9.884;2023-10-19T04:14:50;9.00;99.90
20041;DHT22;10181;48.072;9.884;2023-10-19T04:17:16;9.00;99.90
20041;DHT22;10181;48.072;9.884;2023-10-19T04:19:42;9.00;99.90
20041;DHT22;10181;48.072;9.884;2023-10-19T04:22:09;9.00;99.90
20041;DHT22;10181;48.072;9.884;2023-10-19T04:24:47;9.00;99.90
20041;DHT22;10181;48.072;9.884;2023-10-19T04:27:12;9.00;99.90
20041;DHT22;10181;48.072;9.884;2023-10-19T04:29:38;9.10;99.90
20041;DHT22;10181;48.072;9.884;2023-10-19T04:32:06;9.10;99.90
20041;DHT22;10181;48.072;9.884;2023-10-19T04:34:32;9.20;99.90
20041;DHT22;10181;48.072;9.884;2023-10-19T04:36:58;9.20;99.90
20041;DHT22;10181;48.072;9.884;2023-10-19T04:39:23;9.30;99.90
20041;DHT22;10181;48.072;9.884;2023-10-19T04:41:49;9.20;99.90
20041;DHT22;10181;48.072;9.884;2023-10-19T04:44:15;9.30;99.90
20041;DHT22;10181;48.072;9.884;2023-10-19T04:46:42;9.40;99.90
20041;DHT22;10181;48.072;9.884;2023-10-19T04:49:07;9.40;99.90
20041;DHT22;10181;48.072;9.884;2023-10-19T04:51:34;9.50;99.90
20041;DHT22;10181;48.072;9.884;2023-10-19T04:54:04;9.60;99.90
20041;DHT22;10181;48.072;9.884;2023-10-19T04:56:31;9.60;99.90
20041;DHT22;10181;48.072;9.884;2023-10-19T04:58:57;9.70;99.90
20041;DHT22;10181;48.072;9.884;2023-10-19T05:01:23;9.70;99.90
20041;DHT22;10181;48.072;9.884;2023-10-19T05:03:48;9.80;99.90
20041;DHT22;10181;48.072;9.884;2023-10-19T05:06:14;9.80;99.90
20041;DHT22;10181;48.072;9.884;2023-10-19T05:08:39;9.90;99.90
20041;DHT22;10181;48.072;9.884;2023-10-19T05:11:05;10.00;99.90
20041;DHT22;10181;48.072;9.884;2023-10-19T05:13:31;10.10;99.90
20041;DHT22;10181;48.072;9.884;2023-10-19T05:15:58;10.10;99.90
20041;DHT22;10181;48.072;9.884;2023-10-19T05:18:25;10.10;99.90
20041;DHT22;10181;48.072;9.884;2023-10-19T05:20:52;10.10;99.90
20041;DHT22;10181;48.072;9.884;2023-10-19T05:23:25;10.20;99.90
20041;DHT22;10181;48.072;9.884;2023-10-19T05:25:52;10.20;99.90
20041;DHT22;10181;48.072;9.884;2023-10-19T05:28:19;10.20;99.90
20041;DHT22;10181;48.072;9.884;2023-10-19T05:30:45;10.20;99.90
20041;DHT22;10181;48.072;9.884;2023-10-19T05:33:10;10.30;99.90
20041;DHT22;10181;48.072;9.884;2023-10-19T05:35:36;10.30;99.90
20041;DHT22;10181;48.072;9.884;2023-10-19T05:38:06;10.30;99.90
20041;DHT22;10181;48.072;9.884;2023-10-19T05:40:32;10.30;99.90
20041;DHT22;10181;48.072;9.884;2023-10-19T05:42:59;10.20;99.90
20041;DHT22;10181;48.072;9.884;2023-10-19T05:45:26;10.20;99.90
20041;DHT22;10181;48.072;9.884;2023-10-19T05:47:53;10.30;99.90
20041;DHT22;10181;48.072;9.884;2023-10-19T05:50:19;10.30;99.90
20041;DHT22;10181;48.072;9.884;2023-10-19T05:52:44;10.30;99.90
20041;DHT22;10181;48.072;9.884;2023-10-19T05:55:10;10.30;99.90
20041;DHT22;10181;48.072;9.884;2023-10-19T05:57:37;10.30;99.90
20041;DHT22;10181;48.072;9.884;2023-10-19T06:00:12;10.30;99.90
20041;DHT22;10181;48.072;9.884;2023-10-19T06:02:48;10.30;99.90
20041;DHT22;10181;48.072;9.884;2023-10-19T06:05:18;10.30;99.90
20041;DHT22;10181;48.072;9.884;2023-10-19T06:07:48;10.20;99.90
20041;DHT22;10181;48.072;9.884;2023-10-19T06:10:17;10.20;99.90
20041;DHT22;10181;48.072;9.884;2023-10-19T06:12:48;10.30;99.90
20041;DHT22;10181;48.072;9.884;2023-10-19T06:15:15;10.30;99.90
20041;DHT22;10181;48.072;9.884;2023-10-19T06:17:42;10.30;99.90
20041;DHT22;10181;48.072;9.884;2023-10-19T06:20:09;10.40;99.90
20041;DHT22;10181;48.072;9.884;2023-10-19T06:22:46;10.40;99.90
20041;DHT22;10181;48.072;9.884;2023-10-19T06:25:16;10.40;99.90
20041;DHT22;10181;48.072;9.884;2023-10-19T06:27:43;10.40;99.90
20041;DHT22;10181;48.072;9.884;2023-10-19T06:30:09;10.40;99.90
20041;DHT22;10181;48.072;9.884;2023-10-19T06:32:36;10.40;99.90
20041;DHT22;10181;48.072;9.884;2023-10-19T06:35:03;10.30;99.90
20041;DHT22;10181;48.072;9.884;2023-10-19T06:37:29;10.30;99.90
20041;DHT22;10181;48.072;9.884;2023-10-19T06:39:54;10.30;99.90
20041;DHT22;10181;48.072;9.884;2023-10-19T06:42:20;10.30;99.90
20041;DHT22;10181;48.072;9.884;2023-10-19T06:44:46;10.30;99.90
20041;DHT22;10181;48.072;9.884;2023-10-19T06:47:12;10.30;99.90
20041;DHT22;10181;48.072;9.884;2023-10-19T06:49:39;10.40;99.90
20041;DHT22;10181;48.072;9.884;2023-10-19T06:52:04;10.50;99.90
20041;DHT22;10181;48.072;9.884;2023-10-19T06:54:31;10.60;99.90
20041;DHT22;10181;48.072;9.884;2023-10-19T06:56:57;10.70;99.90
20041;DHT22;10181;48.072;9.884;2023-10-19T06:59:23;10.80;99.90
20041;DHT22;10181;48.072;9.884;2023-10-19T07:01:49;11.00;99.90
20041;DHT22;10181;48.072;9.884;2023-10-19T07:04:15;11.00;99.90
20041;DHT22;10181;48.072;9.884;2023-10-19T07:06:41;11.10;99.90
20041;DHT22;10181;48.072;9.884;2023-10-19T07:09:06;11.20;99.90
20041;DHT22;10181;48.072;9.884;2023-10-19T07:11:35;11.30;99.90
20041;DHT22;10181;48.072;9.884;2023-10-19T07:14:01;11.30;99.90
20041;DHT22;10181;48.072;9.884;2023-10-19T07:16:27;11.40;99.90
20041;DHT22;10181;48.072;9.884;2023-10-19T07:18:52;11.40;99.90
20041;DHT22;10181;48.072;9.884;2023-10-19T07:21:18;11.50;99.90
20041;DHT22;10181;48.072;9.884;2023-10-19T07:23:44;11.60;99.90
20041;DHT22;10181;48.072;9.884;2023-10-19T07:26:11;11.60;99.90
20041;DHT22;10181;48.072;9.884;2023-10-19T07:28:39;11.70;99.90
20041;DHT22;10181;48.072;9.884;2023-10-19T07:31:05;11.70;99.90
20041;DHT22;10181;48.072;9.884;2023-10-19T07:33:37;11.80;99.90
20041;DHT22;10181;48.072;9.884;2023-10-19T07:36:12;11.80;99.90
20041;DHT22;10181;48.072;9.884;2023-10-19T07:38:39;11.80;99.90
20041;DHT22;10181;48.072;9.884;2023-10-19T07:41:05;11.80;99.90
20041;DHT22;10181;48.072;9.884;2023-10-19T07:43:31;11.90;99.90
20041;DHT22;10181;48.072;9.884;2023-10-19T07:45:56;11.90;99.90
20041;DHT22;10181;48.072;9.884;2023-10-19T07:48:22;11.80;99.90
20041;DHT22;10181;48.072;9.884;2023-10-19T07:50:48;11.80;99.90
20041;DHT22;10181;48.072;9.884;2023-10-19T07:53:13;11.80;99.90
20041;DHT22;10181;48.072;9.884;2023-10-19T07:55:39;11.80;99.90
20041;DHT22;10181;48.072;9.884;2023-10-19T07:58:05;11.80;99.90
20041;DHT22;10181;48.072;9.884;2023-10-19T08:00:34;11.80;99.90
20041;DHT22;10181;48.072;9.884;2023-10-19T08:03:01;11.80;99.90
20041;DHT22;10181;48.072;9.884;2023-10-19T08:05:26;11.80;99.90
20041;DHT22;10181;48.072;9.884;2023-10-19T08:07:53;11.80;99.90
20041;DHT22;10181;48.072;9.884;2023-10-19T08:10:19;11.80;99.90
20041;DHT22;10181;48.072;9.884;2023-10-19T08:12:46;11.80;99.90
20041;DHT22;10181;48.072;9.884;2023-10-19T08:15:14;11.80;99.90
20041;DHT22;10181;48.072;9.884;2023-10-19T08:17:48;11.80;99.90
20041;DHT22;10181;48.072;9.884;2023-10-19T08:20:15;11.80;99.90
20041;DHT22;10181;48.072;9.884;2023-10-19T08:22:51;11.80;99.90
20041;DHT22;10181;48.072;9.884;2023-10-19T08:25:18;11.90;99.90
20041;DHT22;10181;48.072;9.884;2023-10-19T08:27:45;11.90;99.90
20041;DHT22;10181;48.072;9.884;2023-10-19T08:30:15;12.00;99.90
20041;DHT22;10181;48.072;9.884;2023-10-19T08:32:43;12.00;99.90
20041;DHT22;10181;48.072;9.884;2023-10-19T08:35:09;12.10;99.90
20041;DHT22;10181;48.072;9.884;2023-10-19T08:37:38;12.10;99.90
20041;DHT22;10181;48.072;9.884;2023-10-19T08:40:10;12.20;99.90
20041;DHT22;10181;48.072;9.884;2023-10-19T08:42:45;12.30;99.90
20041;DHT22;10181;48.072;9.884;2023-10-19T08:45:14;12.30;99.90
20041;DHT22;10181;48.072;9.884;2023-10-19T08:50:16;12.50;99.90
20041;DHT22;10181;48.072;9.884;2023-10-19T08:52:43;12.50;99.90
20041;DHT22;10181;48.072;9.884;2023-10-19T08:55:09;12.60;99.90
20041;DHT22;10181;48.072;9.884;2023-10-19T08:57:39;12.60;99.90
20041;DHT22;10181;48.072;9.884;2023-10-19T09:00:05;12.60;99.90
20041;DHT22;10181;48.072;9.884;2023-10-19T09:02:32;12.60;99.90
20041;DHT22;10181;48.072;9.884;2023-10-19T09:04:58;12.60;99.90
20041;DHT22;10181;48.072;9.884;2023-10-19T09:07:25;12.60;99.90
20041;DHT22;10181;48.072;9.884;2023-10-19T09:09:56;12.50;99.90
20041;DHT22;10181;48.072;9.884;2023-10-19T09:12:22;12.50;99.90
20041;DHT22;10181;48.072;9.884;2023-10-19T09:14:48;12.60;99.90
20041;DHT22;10181;48.072;9.884;2023-10-19T09:17:15;12.60;99.90
20041;DHT22;10181;48.072;9.884;2023-10-19T09:19:45;12.60;99.90
20041;DHT22;10181;48.072;9.884;2023-10-19T09:22:13;12.50;99.90
20041;DHT22;10181;48.072;9.884;2023-10-19T09:24:44;12.50;99.90
20041;DHT22;10181;48.072;9.884;2023-10-19T09:27:10;12.50;99.90
20041;DHT22;10181;48.072;9.884;2023-10-19T09:29:38;12.50;99.90
20041;DHT22;10181;48.072;9.884;2023-10-19T09:32:05;12.50;99.90
20041;DHT22;10181;48.072;9.884;2023-10-19T09:34:32;12.50;99.90
20041;DHT22;10181;48.072;9.884;2023-10-19T09:37:00;12.50;99.90
20041;DHT22;10181;48.072;9.884;2023-10-19T09:39:30;12.50;99.90
20041;DHT22;10181;48.072;9.884;2023-10-19T09:42:11;12.60;99.90
20041;DHT22;10181;48.072;9.884;2023-10-19T09:44:44;12.60;99.90
20041;DHT22;10181;48.072;9.884;2023-10-19T09:47:12;12.60;99.90
20041;DHT22;10181;48.072;9.884;2023-10-19T09:49:42;12.60;99.90
20041;DHT22;10181;48.072;9.884;2023-10-19T09:52:11;12.60;99.90
20041;DHT22;10181;48.072;9.884;2023-10-19T09:55:00;12.70;99.90
20041;DHT22;10181;48.072;9.884;2023-10-19T09:57:39;12.70;99.90
20041;DHT22;10181;48.072;9.884;2023-10-19T10:00:06;12.70;99.90
20041;DHT22;10181;48.072;9.884;2023-10-19T10:02:44;12.70;99.90
20041;DHT22;10181;48.072;9.884;2023-10-19T10:05:45;12.80;99.90
20041;DHT22;10181;48.072;9.884;2023-10-19T10:10:48;12.90;99.90
20041;DHT22;10181;48.072;9.884;2023-10-19T10:15:56;13.00;99.90
20041;DHT22;10181;48.072;9.884;2023-10-19T10:18:26;13.00;99.90
20041;DHT22;10181;48.072;9.884;2023-10-19T10:21:15;13.10;99.90
20041;DHT22;10181;48.072;9.884;2023-10-19T10:23:48;13.10;99.90
20041;DHT22;10181;48.072;9.884;2023-10-19T10:26:16;13.20;99.90
20041;DHT22;10181;48.072;9.884;2023-10-19T10:28:45;13.30;99.90
20041;DHT22;10181;48.072;9.884;2023-10-19T10:31:35;13.40;99.90
20041;DHT22;10181;48.072;9.884;2023-10-19T10:34:08;13.40;99.90
20041;DHT22;10181;48.072;9.884;2023-10-19T10:39:29;13.60;99.90
20041;DHT22;10181;48.072;9.884;2023-10-19T10:41:59;13.70;99.90
20041;DHT22;10181;48.072;9.884;2023-10-19T10:44:41;13.70;99.90
20041;DHT22;10181;48.072;9.884;2023-10-19T10:47:08;13.80;99.90
20041;DHT22;10181;48.072;9.884;2023-10-19T10:52:29;14.00;99.90
20041;DHT22;10181;48.072;9.884;2023-10-19T10:54:56;14.00;99.90
20041;DHT22;10181;48.072;9.884;2023-10-19T10:57:22;14.00;99.90
20041;DHT22;10181;48.072;9.884;2023-10-19T11:00:10;14.10;99.90
20041;DHT22;10181;48.072;9.884;2023-10-19T11:02:44;14.20;99.90
20041;DHT22;10181;48.072;9.884;2023-10-19T11:05:16;14.20;99.90
20041;DHT22;10181;48.072;9.884;2023-10-19T11:10:29;14.20;99.90
20041;DHT22;10181;48.072;9.884;2023-10-19T11:13:08;14.20;99.90
20041;DHT22;10181;48.072;9.884;2023-10-19T11:15:35;14.30;99.90
20041;DHT22;10181;48.072;9.884;2023-10-19T11:18:03;14.40;99.90
20041;DHT22;10181;48.072;9.884;2023-10-19T11:20:29;14.50;99.90
20041;DHT22;10181;48.072;9.884;2023-10-19T11:22:56;14.60;99.90
20041;DHT22;10181;48.072;9.884;2023-10-19T11:25:25;14.70;99.90
20041;DHT22;10181;48.072;9.884;2023-10-19T11:27:54;14.80;99.90
20041;DHT22;10181;48.072;9.884;2023-10-19T11:30:30;14.90;99.90
20041;DHT22;10181;48.072;9.884;2023-10-19T11:32:59;15.10;99.90
20041;DHT22;10181;48.072;9.884;2023-10-19T11:35:28;15.30;99.90
20041;DHT22;10181;48.072;9.884;2023-10-19T11:37:57;15.70;99.90
20041;DHT22;10181;48.072;9.884;2023-10-19T11:40:24;15.90;99.90
20041;DHT22;10181;48.072;9.884;2023-10-19T11:42:51;16.00;99.90
20041;DHT22;10181;48.072;9.884;2023-10-19T11:45:18;16.00;99.90
20041;DHT22;10181;48.072;9.884;2023-10-19T11:47:44;16.10;99.90
20041;DHT22;10181;48.072;9.884;2023-10-19T11:50:11;16.10;99.90
20041;DHT22;10181;48.072;9.884;2023-10-19T11:52:44;16.10;99.90
20041;DHT22;10181;48.072;9.884;2023-10-19T11:55:11;16.20;99.90
20041;DHT22;10181;48.072;9.884;2023-10-19T11:57:39;16.40;99.90
20041;DHT22;10181;48.072;9.884;2023-10-19T12:00:06;16.50;99.90
20041;DHT22;10181;48.072;9.884;2023-10-19T12:02:38;16.80;99.90
20041;DHT22;10181;48.072;9.884;2023-10-19T12:05:10;17.20;99.90
20041;DHT22;10181;48.072;9.884;2023-10-19T12:07:36;17.50;99.90
20041;DHT22;10181;48.072;9.884;2023-10-19T12:10:04;17.60;99.90
20041;DHT22;10181;48.072;9.884;2023-10-19T12:12:29;17.80;99.90
20041;DHT22;10181;48.072;9.884;2023-10-19T12:14:55;17.70;99.90
20041;DHT22;10181;48.072;9.884;2023-10-19T12:17:21;17.60;99.90
20041;DHT22;10181;48.072;9.884;2023-10-19T12:19:48;17.60;99.90
20041;DHT22;10181;48.072;9.884;2023-10-19T12:22:13;17.50;99.90
20041;DHT22;10181;48.072;9.884;2023-10-19T12:24:39;17.50;99.90
20041;DHT22;10181;48.072;9.884;2023-10-19T12:27:04;17.70;99.90
20041;DHT22;10181;48.072;9.884;2023-10-19T12:29:30;18.00;99.90
20041;DHT22;10181;48.072;9.884;2023-10-19T12:31:57;18.30;99.90
20041;DHT22;10181;48.072;9.884;2023-10-19T12:34:22;18.20;99.90
20041;DHT22;10181;48.072;9.884;2023-10-19T12:36:48;18.30;99.90
20041;DHT22;10181;48.072;9.884;2023-10-19T12:39:15;18.10;99.90
20041;DHT22;10181;48.072;9.884;2023-10-19T12:41:59;18.10;99.90
20041;DHT22;10181;48.072;9.884;2023-10-19T12:44:26;17.80;99.90
20041;DHT22;10181;48.072;9.884;2023-10-19T12:46:54;17.70;99.90
20041;DHT22;10181;48.072;9.884;2023-10-19T12:49:20;17.50;99.90
20041;DHT22;10181;48.072;9.884;2023-10-19T12:51:51;17.30;99.90
20041;DHT22;10181;48.072;9.884;2023-10-19T12:54:17;17.20;99.90
20041;DHT22;10181;48.072;9.884;2023-10-19T12:56:43;17.10;99.90
20041;DHT22;10181;48.072;9.884;2023-10-19T12:59:09;16.90;99.90
20041;DHT22;10181;48.072;9.884;2023-10-19T13:01:35;16.80;99.90
20041;DHT22;10181;48.072;9.884;2023-10-19T13:04:01;16.80;99.90
20041;DHT22;10181;48.072;9.884;2023-10-19T13:06:39;16.70;99.90
20041;DHT22;10181;48.072;9.884;2023-10-19T13:09:05;16.60;99.90
20041;DHT22;10181;48.072;9.884;2023-10-19T13:11:30;16.60;99.90
20041;DHT22;10181;48.072;9.884;2023-10-19T13:13:57;16.50;99.90
20041;DHT22;10181;48.072;9.884;2023-10-19T13:16:26;16.50;99.90
20041;DHT22;10181;48.072;9.884;2023-10-19T13:18:53;16.50;99.90
20041;DHT22;10181;48.072;9.884;2023-10-19T13:21:19;16.40;99.90
20041;DHT22;10181;48.072;9.884;2023-10-19T13:23:47;16.40;99.90
20041;DHT22;10181;48.072;9.884;2023-10-19T13:26:14;16.40;99.90
20041;DHT22;10181;48.072;9.884;2023-10-19T13:28:46;16.50;99.90
20041;DHT22;10181;48.072;9.884;2023-10-19T13:31:12;16.40;99.90
20041;DHT22;10181;48.072;9.884;2023-10-19T13:33:41;16.40;99.90
20041;DHT22;10181;48.072;9.884;2023-10-19T13:36:07;16.40;99.90
20041;DHT22;10181;48.072;9.884;2023-10-19T13:38:33;16.40;99.90
20041;DHT22;10181;48.072;9.884;2023-10-19T13:40:59;16.40;99.90
20041;DHT22;10181;48.072;9.884;2023-10-19T13:43:27;16.40;99.90
20041;DHT22;10181;48.072;9.884;2023-10-19T13:45:53;16.40;99.90
20041;DHT22;10181;48.072;9.884;2023-10-19T13:48:19;16.40;99.90
20041;DHT22;10181;48.072;9.884;2023-10-19T13:50:48;16.40;99.90
20041;DHT22;10181;48.072;9.884;2023-10-19T13:53:17;16.40;99.90
20041;DHT22;10181;48.072;9.884;2023-10-19T13:55:43;16.50;99.90
20041;DHT22;10181;48.072;9.884;2023-10-19T13:58:09;16.60;99.90
20041;DHT22;10181;48.072;9.884;2023-10-19T14:00:36;16.60;99.90
20041;DHT22;10181;48.072;9.884;2023-10-19T14:03:05;16.70;99.90
20041;DHT22;10181;48.072;9.884;2023-10-19T14:05:39;16.80;99.90
20041;DHT22;10181;48.072;9.884;2023-10-19T14:08:06;16.80;99.90
20041;DHT22;10181;48.072;9.884;2023-10-19T14:10:32;16.90;99.90
20041;DHT22;10181;48.072;9.884;2023-10-19T14:12:58;16.90;99.90
20041;DHT22;10181;48.072;9.884;2023-10-19T14:15:24;16.90;99.90
20041;DHT22;10181;48.072;9.884;2023-10-19T14:17:51;17.00;99.90
20041;DHT22;10181;48.072;9.884;2023-10-19T14:20:17;17.00;99.90
20041;DHT22;10181;48.072;9.884;2023-10-19T14:22:44;17.00;99.90
20041;DHT22;10181;48.072;9.884;2023-10-19T14:25:12;17.00;99.90
20041;DHT22;10181;48.072;9.884;2023-10-19T14:27:44;17.00;99.90
20041;DHT22;10181;48.072;9.884;2023-10-19T14:30:11;17.00;99.90
20041;DHT22;10181;48.072;9.884;2023-10-19T14:32:42;17.00;99.90
20041;DHT22;10181;48.072;9.884;2023-10-19T14:35:10;17.00;99.90
20041;DHT22;10181;48.072;9.884;2023-10-19T14:37:42;16.90;99.90
20041;DHT22;10181;48.072;9.884;2023-10-19T14:40:12;16.90;99.90
20041;DHT22;10181;48.072;9.884;2023-10-19T14:42:41;16.90;99.90
20041;DHT22;10181;48.072;9.884;2023-10-19T14:45:12;16.90;99.90
20041;DHT22;10181;48.072;9.884;2023-10-19T14:47:40;16.90;99.90
20041;DHT22;10181;48.072;9.884;2023-10-19T14:50:11;17.00;99.90
20041;DHT22;10181;48.072;9.884;2023-10-19T14:52:37;17.00;99.90
20041;DHT22;10181;48.072;9.884;2023-10-19T14:55:04;17.00;99.90
20041;DHT22;10181;48.072;9.884;2023-10-19T14:57:32;17.00;99.90
20041;DHT22;10181;48.072;9.884;2023-10-19T14:59:58;17.10;99.90
20041;DHT22;10181;48.072;9.884;2023-10-19T15:02:34;17.10;99.90
20041;DHT22;10181;48.072;9.884;2023-10-19T15:05:01;17.00;99.90
20041;DHT22;10181;48.072;9.884;2023-10-19T15:07:29;17.00;99.90
20041;DHT22;10181;48.072;9.884;2023-10-19T15:09:55;17.00;99.90
20041;DHT22;10181;48.072;9.884;2023-10-19T15:12:21;17.00;99.90
20041;DHT22;10181;48.072;9.884;2023-10-19T15:14:46;17.00;99.90
20041;DHT22;10181;48.072;9.884;2023-10-19T15:17:12;17.00;99.90
20041;DHT22;10181;48.072;9.884;2023-10-19T15:19:37;16.90;99.90
20041;DHT22;10181;48.072;9.884;2023-10-19T15:22:03;16.90;99.90
20041;DHT22;10181;48.072;9.884;2023-10-19T15:24:29;16.80;99.90
20041;DHT22;10181;48.072;9.884;2023-10-19T15:26:54;16.80;99.90
20041;DHT22;10181;48.072;9.884;2023-10-19T15:29:20;16.70;99.90
20041;DHT22;10181;48.072;9.884;2023-10-19T15:31:46;16.70;99.90
20041;DHT22;10181;48.072;9.884;2023-10-19T15:34:13;16.60;99.90
20041;DHT22;10181;48.072;9.884;2023-10-19T15:36:40;16.50;99.90
20041;DHT22;10181;48.072;9.884;2023-10-19T15:39:06;16.40;99.90
20041;DHT22;10181;48.072;9.884;2023-10-19T15:41:36;16.40;99.90
20041;DHT22;10181;48.072;9.884;2023-10-19T15:44:01;16.30;99.90
20041;DHT22;10181;48.072;9.884;2023-10-19T15:46:29;16.30;99.90
20041;DHT22;10181;48.072;9.884;2023-10-19T15:48:56;16.20;99.90
20041;DHT22;10181;48.072;9.884;2023-10-19T15:51:22;16.20;99.90
20041;DHT22;10181;48.072;9.884;2023-10-19T15:53:48;16.10;99.90
20041;DHT22;10181;48.072;9.884;2023-10-19T15:56:13;16.00;99.90
20041;DHT22;10181;48.072;9.884;2023-10-19T15:58:42;15.90;99.90
20041;DHT22;10181;48.072;9.884;2023-10-19T16:01:09;15.80;99.90